Historyczne dane pomiarowe

Dodano dane terminowe – wersja testowa.

Dane z okresu 1951-2019

Wersja bazy: 1.34 [2019-03-16, lista zmian], aktualizacja planowana na 2019-04-15

Dane meteo z obszaru Polski uzyskane na podstawie danych udostępnionych przez Instytut Meteorologii i Gospodarki Wodnej – Państwowy Instytut Badawczy.

 

Wybierz Datę:    

       

TemperaturaWilgotnośćWiatrCiśnienieOpadyŚniegCzas trwania zjawisk
 Stacja t tx tn tng RH VA  wxwx mslp ppp RRR   cm mm wxwxwxwxwxwxwx
1999-08-14 15.2 22.0 10.7- 72.0- 3.3 2.0---- 0.2------------
1999-08-13 14.7 20.3 9.3- 76.5- 3.0 2.3---- 0.0------------
1999-08-12 16.7 20.0 13.9- 80.8- 7.0 1.7---- 0.0------------
1999-08-11 19.8 24.7 17.3- 91.8- 4.7 3.3---- 7.0------------
1999-08-10 20.5 28.0 16.0- 88.5- 6.7 2.0---- 3.8------------
1999-08-09 22.0 30.6 15.0- 73.8- 2.3 1.3---- 1.5------------
1999-08-08 21.7 28.5 16.8- 79.8- 1.3 1.3---- 0.0------------
1999-08-07 22.1 29.8 14.6- 79.5- 0.0 1.7---- 0.0------------
1999-08-06 21.8 26.9 16.7- 78.0- 2.7 1.3---- 0.0------------
1999-08-05 18.5 26.4 10.0- 70.0- 2.7 2.7---- 3.4------------
1999-08-04 17.5 25.4 9.4- 61.3- 0.0 1.3---- 0.0------------
1999-08-03 16.6 23.4 9.1- 75.8- 6.7 3.0---- 0.0------------
1999-08-02 16.6 21.8 10.9- 79.3- 5.3 1.0---- 0.0------------
1999-08-01 17.9 25.6 12.0- 81.5- 4.0 2.7---- 12.9------------
1999-07-31 18.5 25.9 9.5- 50.8- 2.0 2.7---- 0.0------------
1999-07-30 18.5 25.1 10.7- 55.3- 3.3 2.0---- 0.0------------
1999-07-29 18.7 24.4 13.3- 61.5- 0.7 3.0---- 0.0------------
1999-07-28 20.2 24.7 15.0- 60.3- 2.0 1.7---- 0.0------------
1999-07-27 20.0 24.4 16.4- 81.3- 6.7 1.3---- 0.0------------
1999-07-26 20.4 26.7 13.4- 78.0- 4.0 2.0---- 0.0------------
1999-07-25 18.8 24.3 10.8- 78.8- 1.3 0.7---- 0.0------------
1999-07-24 15.9 20.8 11.8- 86.8- 3.3 1.3---- 0.0------------
1999-07-23 16.2 21.2 13.0- 99.3- 8.0 1.0---- 5.3------------
1999-07-22 20.3 24.3 16.7- 74.5- 6.7 2.0---- 9.1------------
1999-07-21 22.0 28.7 16.4- 72.5- 5.3 2.0---- 0.8------------
1999-07-20 21.9 28.7 12.6- 64.3- 0.0 1.0---- 0.0------------
1999-07-19 20.3 28.4 11.4- 68.5- 0.0 1.3---- 0.0------------
1999-07-18 18.8 25.9 10.1- 69.8- 0.0 1.3---- 0.0------------
1999-07-17 16.7 23.7 9.5- 72.0- 2.0 1.3---- 0.0------------
1999-07-16 17.6 22.5 12.9- 62.3- 0.0 3.3---- 0.0------------
1999-07-15 17.3 21.3 14.3- 79.5- 5.7 2.3---- 0.0------------
1999-07-14 20.9 28.3 17.4- 82.5- 5.3 4.0---- 1.2------------
1999-07-13 20.8 25.7 15.8- 81.8- 6.0 1.3---- 12.5------------
1999-07-12 20.4 27.6 14.2- 80.8- 1.7 2.7---- 2.5------------
1999-07-11 17.3 21.2 11.8- 88.3- 7.0 2.7---- 4.1------------
1999-07-10 20.1 23.9 17.8- 77.3- 6.0 3.0---- 0.0------------
1999-07-09 16.5 20.8 12.2- 95.5- 7.3 1.7---- 0.2------------
1999-07-08 18.0 21.4 16.5- 98.0- 7.0 3.3---- 7.2------------
1999-07-07 21.8 28.6 18.8- 92.3- 7.0 3.3---- 40.4------------
1999-07-06 25.7 32.6 18.8- 60.3- 4.0 2.3---- 0.0------------
1999-07-05 24.5 31.1 16.3- 69.0- 0.0 2.7---- 0.0------------
1999-07-04 23.0 31.2 12.9- 70.8- 0.0 1.7---- 0.0------------
1999-07-03 21.0 26.2 14.9- 70.5- 3.3 2.0---- 0.0------------
1999-07-02 20.3 25.1 14.0- 75.8- 1.7 1.7---- 0.0------------
1999-07-01 17.9 25.6 13.2- 74.0- 3.3 1.0---- 0.0------------
1999-06-30 20.4 25.6 13.2- 71.3- 1.3 1.0---- 0.0------------
1999-06-29 19.5 24.4 14.2- 66.0- 1.3 2.0---- 0.0------------
1999-06-28 19.0 27.7 13.0- 81.5- 4.3 2.7---- 13.1------------
1999-06-27 20.0 27.0 11.0- 64.8- 2.0 3.0---- 0.0------------
1999-06-26 18.9 25.2 13.4- 63.3- 0.7 2.3---- 0.0------------
1999-06-25 13.1 19.3 5.1- 73.5- 2.0 1.0---- 0.0------------
1999-06-24 12.6 17.1 7.1- 75.8- 4.7 1.0---- 0.0------------
1999-06-23 10.4 12.5 8.0- 94.3- 8.0 2.0---- 1.0------------
1999-06-22 11.3 18.1 8.1- 98.5- 8.0 2.7---- 34.2------------
1999-06-21 17.9 23.3 15.2- 85.3- 5.3 1.0---- 40.1------------
1999-06-20 18.3 22.3 13.8- 85.5- 6.0 0.7---- 0.0------------
1999-06-19 14.6 16.1 12.8- 97.5- 8.0 1.3---- 0.0------------
1999-06-18 16.5 19.0 15.0- 97.3- 8.0 1.7---- 6.6------------
1999-06-17 18.3 21.3 16.4- 94.5- 7.3 1.7---- 41.2------------
1999-06-16 17.3 19.8 15.4- 95.5- 7.7 1.0---- 1.2------------
332.5 ms

 

Źródłem pochodzenia danych jest Instytut Meteorologii i Gospodarki Wodnej – Państwowy Instytut Badawczy. Dane Instytutu Meteorologii i Gospodarki Wodnej – Państwowego Instytutu Badawczego zostały przetworzone.

Dane źródłowe można odnaleźć na stronie https://dane.imgw.pl